Time;durP1;ratioP1;P1;durP2;ratioP2;P2;SDS_P1;SDS_P2;PMS_P1;PMS_P2;Temp;Humidity;BMP_temperature;BMP_pressure;BME280_temperature;BME280_humidity;BME280_pressure;Samples;Min_cycle;Max_cycle;Signal;HPM_P1;HPM_P2
2021/06/12 00:00:33;;;;;;;;;3.75;2.25;;;;;20.82;61.96;100305.50;4965989;28;45509;-87
2021/06/12 00:03:00;;;;;;;;;1.00;1.00;;;;;20.71;62.22;100289.84;4969416;28;66719;-87
2021/06/12 00:05:26;;;;;;;;;2.00;2.00;;;;;20.65;62.36;100291.03;4981316;28;46049;-87
2021/06/12 00:07:51;;;;;;;;;1.00;1.00;;;;;20.69;61.73;100303.41;4968644;28;45639;-85
2021/06/12 00:10:33;;;;;;;;;2.00;2.00;;;;;20.65;61.44;100301.84;4972310;28;45603;-87
2021/06/12 00:12:59;;;;;;;;;1.25;1.25;;;;;20.58;61.40;100305.84;4949411;28;47497;-85
2021/06/12 00:15:26;;;;;;;;;1.00;1.00;;;;;20.52;61.57;100304.34;4973643;28;47752;-87
2021/06/12 00:17:52;;;;;;;;;1.25;1.25;;;;;20.48;61.31;100307.25;4970669;28;45500;-86
2021/06/12 00:20:20;;;;;;;;;1.00;1.00;;;;;20.44;61.76;100309.22;4972150;28;45514;-86
2021/06/12 00:22:46;;;;;;;;;1.00;1.00;;;;;20.40;61.65;100311.22;4967367;28;45544;-86
2021/06/12 00:25:12;;;;;;;;;4.00;2.00;;;;;20.34;61.57;100308.84;4971043;28;45341;-87
2021/06/12 00:27:41;;;;;;;;;2.25;1.50;;;;;20.34;61.91;100307.97;4966902;28;45378;-87
2021/06/12 00:30:08;;;;;;;;;2.50;1.00;;;;;20.22;62.04;100291.44;4961343;28;45389;-87
2021/06/12 00:32:34;;;;;;;;;1.00;1.00;;;;;20.27;62.68;100308.28;4969521;28;45585;-87
2021/06/12 00:35:00;;;;;;;;;2.25;1.00;;;;;20.13;62.25;100292.78;4967474;28;45600;-87
2021/06/12 00:37:25;;;;;;;;;4.00;2.00;;;;;20.25;62.31;100315.59;4970746;28;45656;-87
2021/06/12 00:39:51;;;;;;;;;2.75;2.00;;;;;20.13;62.36;100294.59;4972132;28;45593;-87
2021/06/12 00:42:16;;;;;;;;;1.00;1.00;;;;;20.28;61.96;100315.44;4965942;28;47382;-87
2021/06/12 00:44:42;;;;;;;;;2.00;1.00;;;;;20.14;61.64;100288.25;4967332;28;50699;-87
2021/06/12 00:47:07;;;;;;;;;1.00;1.00;;;;;20.05;61.92;100286.03;4967693;28;45652;-85
2021/06/12 00:49:39;;;;;;;;;1.00;1.00;;;;;20.08;61.68;100294.84;4967790;28;55083;-87
2021/06/12 00:52:04;;;;;;;;;1.00;1.00;;;;;20.21;61.68;100323.94;4965016;28;45555;-87
2021/06/12 00:54:31;;;;;;;;;1.00;1.00;;;;;20.17;61.82;100317.81;4953468;28;45457;-86
2021/06/12 00:56:57;;;;;;;;;0.25;0.25;;;;;20.05;61.78;100302.22;4946790;28;45504;-87
2021/06/12 00:59:23;;;;;;;;;1.00;1.00;;;;;20.01;61.55;100295.22;4966459;28;45636;-88
2021/06/12 01:01:49;;;;;;;;;1.00;1.00;;;;;20.10;61.33;100311.84;4969352;28;56855;-87
2021/06/12 01:04:14;;;;;;;;;2.00;1.00;;;;;20.10;61.36;100310.97;4973321;28;46003;-86
2021/06/12 01:06:40;;;;;;;;;1.00;1.00;;;;;19.97;61.54;100286.41;4982984;28;61149;-87
2021/06/12 01:09:05;;;;;;;;;1.00;1.00;;;;;20.03;61.52;100309.53;4970763;28;45652;-86
2021/06/12 01:11:36;;;;;;;;;1.50;1.25;;;;;19.98;61.56;100309.75;4966808;28;45403;-87
2021/06/12 01:14:05;;;;;;;;;2.00;1.00;;;;;19.86;61.80;100292.34;4967262;28;45378;-87
2021/06/12 01:16:53;;;;;;;;;1.00;1.00;;;;;19.93;61.89;100309.97;4966204;28;45545;-85
2021/06/12 01:19:46;;;;;;;;;0.75;0.75;;;;;19.93;61.65;100303.72;4971920;28;45456;-87
2021/06/12 01:22:17;;;;;;;;;1.00;1.00;;;;;19.81;61.84;100287.13;4973147;28;47178;-86
2021/06/12 01:24:58;;;;;;;;;2.75;2.00;;;;;19.75;61.39;100290.13;4972834;28;45599;-84
2021/06/12 01:27:23;;;;;;;;;2.00;1.00;;;;;19.80;61.61;100304.28;4965069;28;45496;-87
2021/06/12 01:30:09;;;;;;;;;0.00;0.00;;;;;19.79;61.88;100307.94;4981266;28;45493;-87
2021/06/12 01:32:39;;;;;;;;;3.00;1.00;;;;;19.78;62.00;100300.78;4968985;28;46370;-87
2021/06/12 01:35:09;;;;;;;;;1.00;1.00;;;;;19.64;62.25;100281.69;4965216;28;45639;-87
2021/06/12 01:37:37;;;;;;;;;0.75;0.75;;;;;19.77;61.82;100311.66;4961440;28;48740;-87
2021/06/12 01:40:05;;;;;;;;;1.00;1.00;;;;;19.73;62.18;100310.94;4966246;28;45684;-87
2021/06/12 01:42:32;;;;;;;;;0.50;0.50;;;;;19.73;62.25;100310.06;4971397;28;46382;-87
2021/06/12 01:44:58;;;;;;;;;2.50;1.00;;;;;19.58;61.86;100279.28;4968152;28;45629;-85
2021/06/12 01:47:23;;;;;;;;;1.00;1.00;;;;;19.67;62.24;100305.81;4968007;28;45459;-87
2021/06/12 01:49:50;;;;;;;;;2.75;0.50;;;;;19.62;62.30;100295.25;4970030;28;45616;-86
2021/06/12 01:52:16;;;;;;;;;2.00;2.00;;;;;19.54;62.49;100280.38;4954632;28;59016;-86
2021/06/12 01:54:43;;;;;;;;;1.00;1.00;;;;;19.67;62.72;100298.63;4971339;28;52873;-87
2021/06/12 01:57:08;;;;;;;;;1.75;1.75;;;;;19.54;62.57;100280.38;4970467;28;45637;-87
2021/06/12 01:59:35;;;;;;;;;1.25;1.25;;;;;19.57;62.61;100289.22;4967021;28;55548;-86
2021/06/12 02:02:02;;;;;;;;;2.25;1.75;;;;;19.58;62.71;100293.66;4967203;28;47148;-85
2021/06/12 02:04:28;;;;;;;;;0.50;0.50;;;;;19.53;62.73;100290.31;4964005;28;45923;-85
2021/06/12 02:07:00;;;;;;;;;2.00;1.00;;;;;19.62;62.84;100302.50;4964826;28;45730;-80
2021/06/12 02:09:25;;;;;;;;;1.00;1.00;;;;;19.57;62.82;100309.94;4967345;28;45579;-85
2021/06/12 02:11:51;;;;;;;;;1.00;1.00;;;;;19.62;62.97;100318.69;4967605;28;63333;-87
2021/06/12 02:14:17;;;;;;;;;0.75;0.75;;;;;19.39;62.67;100293.69;4962452;28;54224;-86
2021/06/12 02:16:43;;;;;;;;;1.00;1.00;;;;;19.42;63.41;100309.69;4961506;28;45620;-88
2021/06/12 02:19:09;;;;;;;;;2.75;1.50;;;;;19.42;63.21;100320.50;4962925;28;45652;-86
2021/06/12 02:21:36;;;;;;;;;2.00;1.00;;;;;19.22;63.01;100291.78;4964131;28;47312;-88
2021/06/12 02:24:03;;;;;;;;;2.00;0.00;;;;;19.27;63.32;100321.22;4970655;28;45716;-86
2021/06/12 02:26:31;;;;;;;;;1.00;1.00;;;;;19.18;63.58;100314.44;4968190;28;45509;-87
2021/06/12 02:28:57;;;;;;;;;1.00;1.00;;;;;19.13;63.34;100309.25;4958096;28;45454;-87
2021/06/12 02:31:32;;;;;;;;;1.00;1.00;;;;;19.12;63.64;100322.81;4964605;28;46264;-86
2021/06/12 02:33:57;;;;;;;;;1.00;1.00;;;;;19.03;63.88;100330.38;4978995;28;45984;-87
2021/06/12 02:36:23;;;;;;;;;3.00;1.25;;;;;19.03;64.04;100319.59;4968615;28;45594;-86
2021/06/12 02:38:48;;;;;;;;;0.75;0.75;;;;;19.04;63.70;100326.75;4964446;28;45556;-87
2021/06/12 02:41:15;;;;;;;;;2.00;2.00;;;;;19.04;63.85;100340.22;4950726;28;46086;-87
2021/06/12 02:43:41;;;;;;;;;1.25;1.00;;;;;18.98;64.37;100332.41;4967180;28;45802;-87
2021/06/12 02:46:14;;;;;;;;;3.00;1.25;;;;;18.92;64.42;100329.97;4969821;28;45945;-86
2021/06/12 02:48:42;;;;;;;;;2.75;1.00;;;;;18.93;64.60;100333.50;4968872;28;45978;-86
2021/06/12 02:51:09;;;;;;;;;3.00;1.00;;;;;18.89;64.96;100327.41;4970250;28;45504;-83
2021/06/12 02:53:38;;;;;;;;;1.00;1.00;;;;;18.81;64.60;100316.09;4967346;28;45615;-87
2021/06/12 02:56:05;;;;;;;;;1.00;1.00;;;;;18.82;64.35;100318.69;4969830;28;45647;-87
2021/06/12 02:58:30;;;;;;;;;1.25;1.00;;;;;18.78;64.54;100309.03;4967149;28;45443;-87
2021/06/12 03:00:57;;;;;;;;;0.50;0.50;;;;;18.81;64.88;100308.00;4960532;28;45537;-86
2021/06/12 03:03:23;;;;;;;;;2.00;2.00;;;;;18.76;64.71;100305.50;4955849;28;46104;-87
2021/06/12 03:05:52;;;;;;;;;0.50;0.50;;;;;18.69;65.21;100304.91;4965169;28;45449;-87
2021/06/12 03:08:18;;;;;;;;;3.00;1.25;;;;;18.72;65.40;100318.25;4960345;28;45453;-85
2021/06/12 03:10:44;;;;;;;;;1.50;1.00;;;;;18.70;65.36;100324.63;4969276;28;45622;-87
2021/06/12 03:13:13;;;;;;;;;2.00;2.00;;;;;18.67;65.40;100327.47;4969039;28;45413;-87
2021/06/12 03:15:40;;;;;;;;;1.00;1.00;;;;;18.62;66.09;100318.72;4955405;28;45336;-87
2021/06/12 03:18:06;;;;;;;;;2.50;1.00;;;;;18.64;65.58;100327.59;4962104;28;46671;-86
2021/06/12 03:20:36;;;;;;;;;3.00;1.00;;;;;18.59;65.66;100320.59;4962937;28;46454;-86
2021/06/12 03:23:03;;;;;;;;;1.00;1.00;;;;;18.61;65.47;100322.34;4963981;28;45351;-87
2021/06/12 03:25:29;;;;;;;;;1.00;1.00;;;;;18.53;65.40;100310.09;4954487;28;45530;-87
2021/06/12 03:27:56;;;;;;;;;1.00;1.00;;;;;18.59;65.38;100320.59;4964904;28;45779;-86
2021/06/12 03:30:22;;;;;;;;;1.00;1.00;;;;;18.55;65.40;100313.59;4971344;28;46483;-87
2021/06/12 03:32:51;;;;;;;;;2.75;2.75;;;;;18.37;65.83;100290.13;4967638;28;45892;-87
2021/06/12 03:35:18;;;;;;;;;1.00;1.00;;;;;18.51;65.53;100313.81;4972757;28;45437;-87
2021/06/12 03:37:44;;;;;;;;;2.50;1.00;;;;;18.52;65.62;100319.13;4970660;28;45560;-87
2021/06/12 03:40:10;;;;;;;;;1.25;1.25;;;;;18.51;65.79;100313.81;4971207;28;48192;-86
2021/06/12 03:42:37;;;;;;;;;1.00;1.00;;;;;18.55;65.38;100326.19;4974167;28;45627;-86
2021/06/12 03:45:06;;;;;;;;;2.50;1.25;;;;;18.48;65.65;100313.94;4975876;28;45397;-87
2021/06/12 03:47:33;;;;;;;;;2.00;2.00;;;;;18.47;65.55;100321.13;4965280;28;45611;-87
2021/06/12 03:49:59;;;;;;;;;1.00;1.00;;;;;18.52;65.85;100327.19;4946071;28;47139;-87
2021/06/12 03:52:28;;;;;;;;;3.00;1.00;;;;;18.50;65.69;100325.53;4976957;28;45520;-87
2021/06/12 03:54:56;;;;;;;;;4.00;2.00;;;;;18.41;65.88;100314.19;4974036;28;45470;-87
2021/06/12 03:57:22;;;;;;;;;1.00;1.00;;;;;18.49;65.95;100321.06;4979709;28;45329;-86
2021/06/12 03:59:47;;;;;;;;;3.00;1.50;;;;;18.48;65.50;100324.72;4974868;28;45467;-87
2021/06/12 04:02:15;;;;;;;;;2.00;2.00;;;;;18.53;65.38;100336.16;4974171;28;62383;-86
2021/06/12 04:04:42;;;;;;;;;3.00;1.50;;;;;18.57;65.28;100340.47;4971675;28;46284;-87
2021/06/12 04:07:07;;;;;;;;;3.00;1.00;;;;;18.58;65.37;100344.91;4974513;28;45592;-86
2021/06/12 04:09:32;;;;;;;;;1.00;1.00;;;;;18.58;65.07;100340.38;4973899;28;52970;-87
2021/06/12 04:11:58;;;;;;;;;1.00;1.00;;;;;18.56;65.65;100342.31;4971986;28;59909;-85
2021/06/12 04:14:23;;;;;;;;;1.00;1.00;;;;;18.53;65.29;100339.72;4972166;28;45605;-87
2021/06/12 04:16:48;;;;;;;;;1.50;1.50;;;;;18.53;65.67;100339.72;4958568;28;49232;-87
2021/06/12 04:19:14;;;;;;;;;3.00;1.50;;;;;18.48;65.42;100340.88;4968808;28;45572;-87
2021/06/12 04:21:39;;;;;;;;;4.75;2.00;;;;;18.52;65.41;100340.66;4973473;28;51058;-87
2021/06/12 04:24:05;;;;;;;;;1.00;1.00;;;;;18.41;65.66;100333.03;4972985;28;45347;-87
2021/06/12 04:26:30;;;;;;;;;2.00;2.00;;;;;18.44;65.52;100337.44;4974160;28;45698;-86
2021/06/12 04:28:56;;;;;;;;;3.75;2.00;;;;;18.54;65.52;100351.38;4968777;28;46349;-86
2021/06/12 04:31:21;;;;;;;;;2.25;2.00;;;;;18.54;65.79;100349.56;4967268;28;55061;-88
2021/06/12 04:33:47;;;;;;;;;0.00;0.00;;;;;18.49;65.42;100343.50;4972954;28;45613;-87
2021/06/12 04:36:12;;;;;;;;;2.50;2.00;;;;;18.53;65.36;100355.91;4985664;28;49886;-88
2021/06/12 04:38:38;;;;;;;;;2.00;2.00;;;;;18.52;65.33;100353.28;4967256;28;56901;-86
2021/06/12 04:41:03;;;;;;;;;2.00;2.00;;;;;18.54;65.54;100354.97;4969365;28;45343;-86
2021/06/12 04:43:29;;;;;;;;;2.00;2.00;;;;;18.55;66.25;100361.22;4967217;28;45516;-87
2021/06/12 04:45:54;;;;;;;;;2.75;2.75;;;;;18.43;65.92;100335.69;4969734;28;45408;-87
2021/06/12 04:48:20;;;;;;;;;3.00;2.00;;;;;18.45;66.52;100351.78;4972516;28;49809;-87
2021/06/12 04:50:45;;;;;;;;;2.00;2.00;;;;;18.41;66.72;100356.41;4973857;28;45426;-84
2021/06/12 04:53:11;;;;;;;;;3.00;3.00;;;;;18.41;66.96;100345.63;4966239;28;55457;-84
2021/06/12 04:55:37;;;;;;;;;2.25;2.00;;;;;18.36;66.72;100355.75;4970098;28;45546;-86
2021/06/12 04:58:03;;;;;;;;;2.75;1.75;;;;;18.35;66.59;100364.78;4967588;28;45558;-87
2021/06/12 05:00:29;;;;;;;;;3.00;3.00;;;;;18.34;66.97;100365.72;4949495;28;45695;-87
2021/06/12 05:02:58;;;;;;;;;4.00;3.00;;;;;18.33;66.69;100356.72;4971728;28;48743;-87
2021/06/12 05:05:23;;;;;;;;;2.00;2.00;;;;;18.34;66.98;100354.94;4968367;28;45411;-87
2021/06/12 05:07:48;;;;;;;;;2.75;2.00;;;;;18.32;67.17;100348.72;4962469;28;61625;-87
2021/06/12 05:10:14;;;;;;;;;4.00;3.00;;;;;18.34;67.29;100360.31;4967467;28;45863;-83
2021/06/12 05:12:40;;;;;;;;;2.75;2.25;;;;;18.32;66.84;100356.81;4980260;28;45716;-87
2021/06/12 05:15:07;;;;;;;;;4.00;3.00;;;;;18.38;66.94;100360.13;4962634;28;45531;-90
2021/06/12 05:17:33;;;;;;;;;2.25;2.25;;;;;18.41;66.84;100364.50;4971062;28;45512;-90
2021/06/12 05:19:59;;;;;;;;;3.00;3.00;;;;;18.40;66.94;100358.25;4974187;28;45505;-90
2021/06/12 05:22:25;;;;;;;;;2.25;2.25;;;;;18.50;66.66;100363.25;4970466;28;45705;-90
2021/06/12 05:24:52;;;;;;;;;2.00;2.00;;;;;18.50;66.62;100347.94;4969441;28;45575;-88
2021/06/12 05:27:18;;;;;;;;;2.25;2.25;;;;;18.54;66.55;100337.91;4968176;28;45773;-88
2021/06/12 05:29:43;;;;;;;;;4.00;3.00;;;;;18.61;66.48;100347.50;4971412;28;45579;-87
2021/06/12 05:32:09;;;;;;;;;3.75;3.75;;;;;18.66;66.86;100345.44;4970288;28;45473;-86
2021/06/12 05:34:34;;;;;;;;;4.25;2.00;;;;;18.51;66.51;100319.19;4970281;28;45758;-88
2021/06/12 05:37:00;;;;;;;;;1.00;1.00;;;;;18.61;66.28;100336.72;4967517;28;45952;-88
2021/06/12 05:39:25;;;;;;;;;3.00;3.00;;;;;18.77;66.27;100354.88;4956742;28;45634;-88
2021/06/12 05:41:51;;;;;;;;;2.25;2.25;;;;;18.85;66.10;100358.13;4962908;28;45488;-86
2021/06/12 05:44:16;;;;;;;;;4.75;3.00;;;;;18.84;66.63;100356.34;4965892;28;55694;-87
2021/06/12 05:46:41;;;;;;;;;3.25;2.50;;;;;18.81;65.89;100345.75;4987964;28;45933;-87
2021/06/12 05:49:07;;;;;;;;;5.25;3.00;;;;;18.93;66.01;100364.09;4960080;28;45546;-87
2021/06/12 05:51:32;;;;;;;;;2.00;2.00;;;;;18.89;65.78;100344.44;4953527;28;45482;-86
2021/06/12 05:53:58;;;;;;;;;2.00;2.00;;;;;19.05;66.03;100357.28;4973129;28;45302;-86
2021/06/12 05:56:24;;;;;;;;;2.75;2.75;;;;;19.14;66.09;100362.25;4970639;28;46300;-88
2021/06/12 05:58:49;;;;;;;;;2.50;2.00;;;;;19.16;65.81;100360.34;4965483;28;45967;-87
2021/06/12 06:01:14;;;;;;;;;2.00;2.00;;;;;19.21;66.21;100365.53;4919471;28;49307;-88
2021/06/12 06:03:43;;;;;;;;;2.00;2.00;;;;;19.32;65.88;100374.03;4968743;28;45473;-88
2021/06/12 06:06:08;;;;;;;;;3.75;3.00;;;;;19.39;65.88;100371.03;4966650;28;46126;-87
2021/06/12 06:08:34;;;;;;;;;1.00;1.00;;;;;19.29;65.63;100351.72;4964715;28;45434;-87
2021/06/12 06:11:01;;;;;;;;;2.00;2.00;;;;;19.46;65.84;100364.41;4966688;28;45683;-89
2021/06/12 06:13:26;;;;;;;;;3.00;3.00;;;;;19.52;65.18;100359.59;4964476;28;46023;-87
2021/06/12 06:15:52;;;;;;;;;4.00;2.25;;;;;19.53;65.22;100357.78;4950263;28;47379;-87
2021/06/12 06:18:17;;;;;;;;;2.00;2.00;;;;;19.51;65.17;100356.97;4949583;28;45583;-86
2021/06/12 06:20:44;;;;;;;;;1.75;1.75;;;;;19.54;65.54;100355.94;4967139;28;45937;-89
2021/06/12 06:23:09;;;;;;;;;2.00;2.00;;;;;19.61;65.77;100360.97;4967176;28;45556;-89
2021/06/12 06:25:35;;;;;;;;;2.00;2.00;;;;;19.67;65.77;100371.50;4963793;28;48639;-88
2021/06/12 06:28:00;;;;;;;;;3.00;3.00;;;;;19.59;65.14;100343.97;4970277;28;45575;-87
2021/06/12 06:30:26;;;;;;;;;2.00;2.00;;;;;19.77;65.52;100373.75;4973110;28;45580;-81
2021/06/12 06:32:51;;;;;;;;;3.00;2.00;;;;;19.78;64.79;100380.91;4969374;28;45604;-86
2021/06/12 06:35:17;;;;;;;;;2.00;2.00;;;;;19.84;64.98;100375.19;4951241;28;47270;-85
2021/06/12 06:37:43;;;;;;;;;3.00;2.00;;;;;19.81;65.09;100370.84;4966205;28;46697;-86
2021/06/12 06:40:09;;;;;;;;;3.75;2.25;;;;;19.91;64.77;100375.81;4969459;28;45386;-87
2021/06/12 06:42:35;;;;;;;;;2.25;2.25;;;;;19.95;65.34;100382.81;4962515;28;45441;-88
2021/06/12 06:45:00;;;;;;;;;5.50;3.00;;;;;19.93;64.70;100388.28;4971575;28;47510;-88
2021/06/12 06:47:26;;;;;;;;;4.75;2.75;;;;;19.92;64.98;100381.13;4968926;28;45436;-87
2021/06/12 06:49:51;;;;;;;;;3.00;1.75;;;;;20.00;64.98;100388.00;4960708;28;47222;-87
2021/06/12 06:52:16;;;;;;;;;4.75;2.50;;;;;20.02;65.04;100383.38;4954694;28;59602;-87
2021/06/12 06:54:42;;;;;;;;;2.75;2.75;;;;;20.16;65.51;100397.09;4970711;28;54178;-87
2021/06/12 06:57:08;;;;;;;;;3.00;3.00;;;;;20.17;64.97;100388.03;4961477;28;45484;-86
2021/06/12 06:59:34;;;;;;;;;2.00;2.00;;;;;20.31;65.36;100397.31;4963568;28;45615;-86
2021/06/12 07:02:00;;;;;;;;;4.25;3.00;;;;;20.41;64.99;100390.50;4958537;28;45566;-88
2021/06/12 07:04:25;;;;;;;;;3.75;3.00;;;;;20.34;63.69;100368.28;4972801;28;46025;-87
2021/06/12 07:06:51;;;;;;;;;3.00;3.00;;;;;20.54;63.63;100401.53;4964674;28;45935;-88
2021/06/12 07:09:16;;;;;;;;;5.00;3.00;;;;;20.56;63.76;100399.66;4967197;28;45469;-86
2021/06/12 07:11:42;;;;;;;;;4.00;3.00;;;;;20.66;62.79;100400.03;4955280;28;45447;-81
2021/06/12 07:14:07;;;;;;;;;3.00;3.00;;;;;20.76;63.36;100406.75;4957117;28;47442;-80
2021/06/12 07:16:32;;;;;;;;;3.00;3.00;;;;;20.85;63.02;100408.97;4973652;28;45322;-77
2021/06/12 07:18:58;;;;;;;;;5.00;3.25;;;;;20.96;62.95;100410.25;4973196;28;45401;-78
2021/06/12 07:21:24;;;;;;;;;6.25;6.25;;;;;21.06;62.29;100414.22;4973068;28;45260;-78
2021/06/12 07:23:49;;;;;;;;;7.00;6.00;;;;;21.21;62.76;100421.53;4974176;28;46468;-80
2021/06/12 07:26:14;;;;;;;;;8.00;6.75;;;;;21.34;62.25;100431.69;4957901;28;51269;-78
2021/06/12 07:28:40;;;;;;;;;8.75;8.00;;;;;21.39;61.50;100429.59;4973952;28;46774;-79
2021/06/12 07:31:05;;;;;;;;;5.25;5.25;;;;;21.47;61.84;100442.72;4975694;28;55294;-78
2021/06/12 07:33:30;;;;;;;;;8.25;8.25;;;;;21.56;61.32;100439.53;4970055;28;45857;-78
2021/06/12 07:35:56;;;;;;;;;11.00;8.50;;;;;21.56;60.69;100430.53;4968935;28;45471;-76
2021/06/12 07:38:21;;;;;;;;;15.00;14.00;;;;;21.65;60.28;100446.31;4972779;28;46191;-81
2021/06/12 07:40:47;;;;;;;;;11.50;10.50;;;;;21.62;60.48;100455.47;4971322;28;45583;-78
2021/06/12 07:43:18;;;;;;;;;19.50;13.75;;;;;21.73;60.35;100452.16;4975713;28;46418;-83
2021/06/12 07:45:44;;;;;;;;;12.50;12.50;;;;;21.84;60.67;100457.00;4974468;28;45682;-79
2021/06/12 07:48:09;;;;;;;;;16.50;16.25;;;;;21.97;59.56;100458.06;4972614;28;45779;-79
2021/06/12 07:50:35;;;;;;;;;15.75;13.75;;;;;22.01;59.50;100460.59;4975502;28;45357;-79
2021/06/12 07:53:00;;;;;;;;;17.50;13.75;;;;;22.05;59.73;100460.34;4971348;28;51219;-79
2021/06/12 07:55:25;;;;;;;;;24.25;17.75;;;;;22.16;58.73;100462.47;4967209;28;52826;-58
2021/06/12 07:57:51;;;;;;;;;20.00;16.00;;;;;22.33;58.09;100469.59;4963610;28;46662;-58
2021/06/12 08:00:17;;;;;;;;;18.00;15.50;;;;;22.39;57.58;100471.97;4967290;28;45531;-56
2021/06/12 08:02:42;;;;;;;;;15.25;13.00;;;;;22.41;56.86;100471.91;4962910;28;47871;-58
2021/06/12 08:05:08;;;;;;;;;12.00;10.75;;;;;22.50;56.79;100467.81;4966300;28;45401;-55
2021/06/12 08:07:33;;;;;;;;;10.00;8.00;;;;;22.58;55.94;100470.94;4967473;28;45402;-58
2021/06/12 08:10:02;;;;;;;;;13.50;12.75;;;;;22.61;55.99;100470.75;4964886;28;45563;-58
2021/06/12 08:12:28;;;;;;;;;15.25;13.25;;;;;22.50;55.31;100473.22;4967634;28;46256;-55
2021/06/12 08:14:53;;;;;;;;;12.75;11.00;;;;;22.28;55.65;100477.13;4962703;28;45519;-59
2021/06/12 08:17:19;;;;;;;;;13.50;12.00;;;;;22.32;56.05;100475.13;4969418;28;45527;-58
2021/06/12 08:19:44;;;;;;;;;11.25;11.00;;;;;22.41;56.09;100467.38;4959494;28;46071;-58
2021/06/12 08:22:13;;;;;;;;;14.50;14.00;;;;;22.59;55.82;100469.97;4958994;28;48298;-58
2021/06/12 08:24:39;;;;;;;;;13.50;12.00;;;;;22.72;55.11;100472.84;4966851;28;45820;-58
2021/06/12 08:27:05;;;;;;;;;12.00;10.00;;;;;22.83;55.31;100472.22;4968521;28;45463;-59
2021/06/12 08:29:30;;;;;;;;;11.75;10.00;;;;;22.94;54.65;100472.44;4966661;28;45535;-58
2021/06/12 08:31:55;;;;;;;;;15.75;11.00;;;;;23.01;54.61;100467.53;4972730;28;46434;-59
2021/06/12 08:34:22;;;;;;;;;13.75;10.25;;;;;23.14;54.80;100468.50;4966580;28;45545;-59
2021/06/12 08:36:48;;;;;;;;;11.75;11.00;;;;;23.10;54.27;100460.66;4969962;28;45596;-58
2021/06/12 08:39:13;;;;;;;;;10.50;10.25;;;;;22.99;53.87;100481.16;4963954;28;45508;-54
2021/06/12 08:41:39;;;;;;;;;13.25;12.25;;;;;22.81;54.04;100477.72;4966299;28;46155;-58
2021/06/12 08:44:04;;;;;;;;;11.75;9.75;;;;;22.85;54.13;100483.84;4962392;28;49455;-54
2021/06/12 08:46:30;;;;;;;;;15.00;12.00;;;;;23.04;53.88;100480.91;4970992;28;45592;-59
2021/06/12 08:48:56;;;;;;;;;13.25;13.25;;;;;23.15;53.59;100474.84;4972256;28;45439;-60
2021/06/12 08:51:22;;;;;;;;;13.00;10.75;;;;;23.26;53.24;100480.53;4972956;28;47351;-59
2021/06/12 08:53:48;;;;;;;;;15.50;13.75;;;;;23.39;53.12;100487.91;4970875;28;45438;-59
2021/06/12 08:56:14;;;;;;;;;31.00;23.25;;;;;23.47;53.57;100499.16;4966028;28;45451;-59
2021/06/12 08:58:39;;;;;;;;;29.75;21.00;;;;;23.31;52.98;100502.81;4972399;28;45658;-59
2021/06/12 09:01:05;;;;;;;;;22.75;19.00;;;;;23.09;53.47;100499.59;4971859;28;46157;-59
2021/06/12 09:03:32;;;;;;;;;22.00;16.00;;;;;22.93;53.66;100500.53;4969659;28;45542;-59
2021/06/12 09:05:59;;;;;;;;;21.25;16.00;;;;;22.90;54.29;100498.00;4970858;28;45416;-60
2021/06/12 09:08:28;;;;;;;;;20.75;16.25;;;;;22.84;53.89;100495.66;4971254;28;45467;-50
2021/06/12 09:11:03;;;;;;;;;16.50;14.50;;;;;22.70;54.25;100496.44;4965568;28;47479;-59
2021/06/12 09:13:49;;;;;;;;;17.25;14.75;;;;;22.55;54.20;100493.69;4957090;28;46309;-57
2021/06/12 09:16:24;;;;;;;;;24.00;17.00;;;;;22.35;54.57;100489.38;4967207;28;45431;-59
2021/06/12 09:18:50;;;;;;;;;23.25;19.50;;;;;22.32;54.75;100497.69;4967893;28;45556;-59
2021/06/12 09:21:44;;;;;;;;;21.50;18.50;;;;;22.44;54.72;100494.28;4973149;28;46215;-58
2021/06/12 09:24:50;;;;;;;;;19.75;16.00;;;;;22.64;55.03;100491.41;4953150;28;45782;-59
2021/06/12 09:27:17;;;;;;;;;18.50;17.25;;;;;22.74;54.34;100485.38;4911505;28;45443;-58
2021/06/12 09:29:51;;;;;;;;;22.75;18.50;;;;;22.80;54.18;100494.09;4911090;28;45379;-57
2021/06/12 09:32:19;;;;;;;;;25.50;19.25;;;;;22.77;53.62;100505.09;4894014;28;46985;-58
2021/06/12 09:34:47;;;;;;;;;24.50;18.25;;;;;22.73;53.84;100497.16;4907329;28;46201;-58
2021/06/12 09:37:16;;;;;;;;;20.00;15.75;;;;;22.77;54.28;100505.09;4894718;28;45453;-58
2021/06/12 09:39:42;;;;;;;;;25.75;20.25;;;;;22.73;54.26;100499.88;4909393;28;45415;-57
2021/06/12 09:42:08;;;;;;;;;21.00;17.25;;;;;22.74;53.99;100501.63;4908102;28;46059;-58
2021/06/12 09:44:39;;;;;;;;;25.25;20.50;;;;;22.78;53.75;100502.31;4897974;28;45526;-59
2021/06/12 09:47:16;;;;;;;;;28.75;18.50;;;;;22.85;53.48;100500.13;4904393;28;47719;-58
2021/06/12 09:49:41;;;;;;;;;25.75;21.50;;;;;22.98;53.54;100508.41;4895310;28;45697;-58
2021/06/12 09:52:12;;;;;;;;;25.25;20.75;;;;;23.06;53.52;100504.28;4903917;28;45506;-56
2021/06/12 09:54:52;;;;;;;;;24.00;18.00;;;;;23.25;53.02;100508.63;4904852;28;45681;-59
2021/06/12 09:57:19;;;;;;;;;24.25;18.50;;;;;23.56;54.31;100504.03;4922884;28;45687;-88
2021/06/12 09:59:51;;;;;;;;;22.50;17.00;;;;;23.82;52.99;100502.41;4955206;28;45473;-89
2021/06/12 10:02:35;;;;;;;;;27.75;22.75;;;;;23.97;53.27;100507.84;4965657;28;45568;-89
2021/06/12 10:05:00;;;;;;;;;21.50;17.75;;;;;23.96;52.16;100481.66;4967510;28;46073;-88
2021/06/12 10:07:26;;;;;;;;;21.25;19.25;;;;;24.14;52.06;100491.34;4960259;28;45592;-89
2021/06/12 10:09:53;;;;;;;;;23.75;19.50;;;;;24.24;52.10;100483.44;4952102;28;45634;-88
2021/06/12 10:12:22;;;;;;;;;26.25;19.75;;;;;24.55;52.63;100496.88;4971086;28;45896;-87
2021/06/12 10:14:50;;;;;;;;;24.25;16.75;;;;;24.88;52.79;100501.06;4971116;28;45628;-88
2021/06/12 10:17:16;;;;;;;;;25.50;17.75;;;;;25.09;52.02;100476.94;4965036;28;45618;-88
2021/06/12 10:19:43;;;;;;;;;21.50;18.75;;;;;25.50;50.62;100491.41;4954117;28;45482;-88
2021/06/12 10:22:10;;;;;;;;;21.00;16.00;;;;;25.77;50.82;100483.13;4970769;28;46145;-88
2021/06/12 10:24:35;;;;;;;;;20.50;17.50;;;;;26.16;49.67;100501.31;4972944;28;45794;-89
2021/06/12 10:27:02;;;;;;;;;16.00;15.50;;;;;26.20;49.41;100509.16;4967683;28;45472;-90
2021/06/12 10:29:27;;;;;;;;;22.50;17.25;;;;;26.16;49.57;100494.00;4969645;28;45659;-88
2021/06/12 10:31:56;;;;;;;;;21.50;17.25;;;;;26.19;48.28;100501.09;4970370;28;45611;-90
2021/06/12 10:34:26;;;;;;;;;18.75;18.00;;;;;26.05;48.76;100502.91;4967081;28;45651;-90
2021/06/12 10:37:03;;;;;;;;;20.50;17.50;;;;;25.98;49.20;100505.22;4970405;28;45503;-90
2021/06/12 10:39:32;;;;;;;;;19.50;17.50;;;;;26.13;48.17;100516.03;4973858;28;45487;-90
2021/06/12 10:42:16;;;;;;;;;20.25;15.50;;;;;26.33;48.73;100513.69;4974657;28;46012;-87
2021/06/12 10:44:45;;;;;;;;;22.75;20.75;;;;;26.27;48.21;100501.38;4976093;28;45688;-89
2021/06/12 10:47:10;;;;;;;;;18.50;16.25;;;;;26.26;48.66;100513.28;4974831;28;45532;-88
2021/06/12 10:49:36;;;;;;;;;20.00;15.00;;;;;26.42;49.06;100513.91;4974289;28;45750;-90
2021/06/12 10:52:02;;;;;;;;;16.50;16.25;;;;;26.36;47.88;100494.38;4970671;28;45952;-89
2021/06/12 10:54:36;;;;;;;;;18.00;16.00;;;;;26.55;48.43;100511.13;4972440;28;45667;-85
2021/06/12 10:57:20;;;;;;;;;27.25;17.50;;;;;26.83;47.30;100510.94;4975316;28;45406;-86
2021/06/12 10:59:50;;;;;;;;;21.50;18.25;;;;;27.00;47.73;100505.03;4972173;28;45479;-89
2021/06/12 11:02:29;;;;;;;;;20.50;17.00;;;;;27.03;47.29;100521.19;4951041;28;47728;-87
2021/06/12 11:05:00;;;;;;;;;21.50;17.00;;;;;27.17;47.04;100520.13;4970254;28;45719;-89
2021/06/12 11:07:36;;;;;;;;;23.00;17.00;;;;;27.23;46.68;100510.59;4975415;28;45504;-90
2021/06/12 11:10:14;;;;;;;;;22.00;17.50;;;;;27.43;45.10;100527.28;4959293;28;45527;-91
2021/06/12 11:12:47;;;;;;;;;18.25;15.50;;;;;27.47;44.88;100526.94;4971839;28;46061;-89
2021/06/12 11:15:35;;;;;;;;;18.25;14.50;;;;;27.32;44.41;100529.00;4971233;28;45868;-89
2021/06/12 11:18:30;;;;;;;;;26.50;21.00;;;;;27.23;46.65;100521.53;4974911;28;46503;-85
2021/06/12 11:20:59;;;;;;;;;21.50;20.00;;;;;27.72;46.22;100515.97;4969524;28;45572;-90